createdAt,value
2023-06-29T00:01:58.537Z,17.98
2023-06-29T00:04:27.334Z,17.99
2023-06-29T00:06:55.587Z,17.98
2023-06-29T00:09:25.078Z,17.95
2023-06-29T00:11:51.698Z,17.94
2023-06-29T00:14:18.215Z,17.92
2023-06-29T00:16:44.880Z,17.90
2023-06-29T00:19:13.055Z,17.84
2023-06-29T00:21:40.024Z,17.72
2023-06-29T00:24:07.312Z,17.63
2023-06-29T00:26:34.412Z,17.61
2023-06-29T00:29:01.207Z,17.63
2023-06-29T00:31:30.179Z,17.62
2023-06-29T00:33:56.700Z,17.58
2023-06-29T00:36:23.360Z,17.47
2023-06-29T00:38:50.100Z,17.40
2023-06-29T00:41:16.635Z,17.23
2023-06-29T00:43:44.203Z,17.15
2023-06-29T00:46:13.016Z,17.21
2023-06-29T00:48:40.120Z,17.16
2023-06-29T00:51:07.004Z,17.11
2023-06-29T00:53:33.711Z,17.14
2023-06-29T00:56:02.999Z,17.16
2023-06-29T00:58:30.416Z,17.16
2023-06-29T01:00:59.955Z,17.16
2023-06-29T01:03:29.252Z,16.88
2023-06-29T01:06:02.042Z,16.73
2023-06-29T01:08:34.290Z,16.66
2023-06-29T01:11:04.697Z,16.76
2023-06-29T01:13:32.423Z,16.92
2023-06-29T01:16:00.526Z,16.92
2023-06-29T01:18:31.799Z,16.94
2023-06-29T01:20:59.907Z,16.97
2023-06-29T01:23:29.159Z,17.01
2023-06-29T01:25:56.304Z,16.98
2023-06-29T01:28:23.211Z,16.94
2023-06-29T01:30:51.995Z,16.92
2023-06-29T01:33:24.441Z,16.90
2023-06-29T01:35:57.981Z,16.91
2023-06-29T01:38:31.067Z,16.91
2023-06-29T01:40:59.485Z,16.91
2023-06-29T01:43:29.304Z,16.92
2023-06-29T01:45:57.728Z,16.95
2023-06-29T01:48:24.801Z,16.94
2023-06-29T01:50:53.101Z,16.94
2023-06-29T01:53:19.663Z,16.91
2023-06-29T01:55:46.305Z,16.92
2023-06-29T01:58:13.124Z,16.90
2023-06-29T02:03:06.459Z,16.85
2023-06-29T02:05:33.127Z,16.81
2023-06-29T02:08:00.125Z,16.70
2023-06-29T02:10:26.935Z,16.40
2023-06-29T02:12:55.266Z,16.24
2023-06-29T02:15:21.915Z,16.07
2023-06-29T02:17:48.479Z,15.94
2023-06-29T02:20:15.254Z,15.91
2023-06-29T02:22:41.981Z,16.01
2023-06-29T02:25:12.567Z,16.06
2023-06-29T02:27:42.620Z,16.02
2023-06-29T02:30:09.677Z,15.89
2023-06-29T02:32:36.431Z,15.75
2023-06-29T02:35:03.019Z,15.73
2023-06-29T02:37:29.780Z,15.92
2023-06-29T02:39:56.324Z,15.81
2023-06-29T02:42:23.500Z,15.63
2023-06-29T02:44:50.019Z,15.58
2023-06-29T02:47:16.618Z,15.59
2023-06-29T02:49:45.436Z,15.68
2023-06-29T02:52:12.179Z,15.50
2023-06-29T02:54:38.677Z,15.51
2023-06-29T02:57:05.476Z,15.48
2023-06-29T02:59:37.091Z,15.46
2023-06-29T03:02:03.745Z,15.46
2023-06-29T03:04:30.314Z,15.50
2023-06-29T03:06:56.905Z,15.61
2023-06-29T03:09:23.505Z,15.77
2023-06-29T03:11:52.001Z,15.89
2023-06-29T03:14:18.698Z,15.95
2023-06-29T03:16:45.234Z,16.01
2023-06-29T03:19:12.133Z,16.02
2023-06-29T03:21:38.648Z,16.09
2023-06-29T03:24:07.379Z,16.09
2023-06-29T03:26:33.933Z,15.94
2023-06-29T03:29:00.474Z,15.98
2023-06-29T03:31:27.452Z,15.99
2023-06-29T03:33:54.053Z,16.04
2023-06-29T03:36:20.746Z,16.07
2023-06-29T03:38:47.377Z,16.07
2023-06-29T03:41:13.886Z,16.06
2023-06-29T03:43:40.702Z,16.04
2023-06-29T03:46:07.220Z,16.10
2023-06-29T03:48:33.916Z,16.03
2023-06-29T03:51:00.999Z,15.93
2023-06-29T03:53:27.565Z,16.02
2023-06-29T03:55:54.104Z,16.08
2023-06-29T03:58:20.773Z,15.88
2023-06-29T04:00:47.271Z,15.71
2023-06-29T04:03:13.916Z,15.57
2023-06-29T04:05:40.619Z,15.56
2023-06-29T04:08:08.045Z,15.64
2023-06-29T04:10:34.759Z,15.93
2023-06-29T04:13:01.718Z,16.12
2023-06-29T04:15:28.608Z,16.36
2023-06-29T04:17:55.160Z,16.66
2023-06-29T04:20:21.735Z,16.95
2023-06-29T04:22:50.200Z,17.22
2023-06-29T04:25:16.902Z,17.41
2023-06-29T04:27:43.900Z,17.46
2023-06-29T04:30:10.749Z,17.71
2023-06-29T04:32:37.375Z,17.95
2023-06-29T04:35:07.054Z,18.25
2023-06-29T04:37:42.288Z,18.44
2023-06-29T04:40:11.046Z,18.42
2023-06-29T04:42:47.686Z,18.32
2023-06-29T04:45:19.166Z,18.48
2023-06-29T04:47:47.246Z,18.42
2023-06-29T04:50:14.661Z,18.17
2023-06-29T04:52:41.369Z,18.61
2023-06-29T04:55:09.254Z,18.70
2023-06-29T04:57:36.163Z,18.92
2023-06-29T05:00:07.708Z,19.28
2023-06-29T05:02:34.436Z,19.65
2023-06-29T05:05:01.038Z,19.98
2023-06-29T05:07:27.660Z,20.30
2023-06-29T05:09:54.551Z,20.61
2023-06-29T05:12:21.032Z,20.79
2023-06-29T05:14:47.523Z,20.78
2023-06-29T05:17:16.365Z,20.71
2023-06-29T05:19:42.912Z,20.17
2023-06-29T05:22:15.305Z,19.87
2023-06-29T05:24:42.970Z,19.99
2023-06-29T05:27:09.936Z,20.28
2023-06-29T05:29:38.394Z,20.30
2023-06-29T05:32:05.864Z,20.28
2023-06-29T05:34:33.905Z,19.88
2023-06-29T05:37:00.416Z,19.69
2023-06-29T05:39:28.421Z,19.74
2023-06-29T05:41:55.144Z,19.73
2023-06-29T05:44:21.682Z,19.66
2023-06-29T05:46:48.279Z,19.62
2023-06-29T05:49:14.788Z,19.67
2023-06-29T05:51:43.407Z,19.79
2023-06-29T05:54:10.077Z,20.02
2023-06-29T05:56:36.584Z,20.31
2023-06-29T05:59:06.710Z,20.65
2023-06-29T06:01:33.350Z,20.87
2023-06-29T06:04:00.332Z,21.07
2023-06-29T06:06:27.065Z,21.64
2023-06-29T06:08:54.086Z,22.48
2023-06-29T06:11:20.854Z,23.25
2023-06-29T06:13:47.588Z,23.28
2023-06-29T06:16:14.231Z,23.66
2023-06-29T06:18:40.922Z,24.01
2023-06-29T06:21:07.532Z,24.05
2023-06-29T06:23:34.723Z,24.38
2023-06-29T06:26:02.160Z,24.16
2023-06-29T06:28:29.093Z,24.03
2023-06-29T06:30:55.660Z,24.26
2023-06-29T06:33:22.207Z,24.35
2023-06-29T06:35:50.838Z,24.55
2023-06-29T06:38:17.423Z,24.56
2023-06-29T06:40:44.472Z,24.81
2023-06-29T06:43:11.265Z,24.94
2023-06-29T06:45:37.773Z,25.04
2023-06-29T06:48:09.366Z,25.02
2023-06-29T06:50:38.615Z,24.90
2023-06-29T06:53:05.451Z,24.28
2023-06-29T06:55:31.983Z,24.30
2023-06-29T06:57:58.500Z,23.99
2023-06-29T07:00:27.932Z,24.08
2023-06-29T07:02:54.518Z,24.39
2023-06-29T07:05:21.103Z,24.55
2023-06-29T07:07:47.673Z,24.72
2023-06-29T07:10:14.344Z,24.60
2023-06-29T07:12:40.975Z,24.76
2023-06-29T07:15:07.982Z,24.92
2023-06-29T07:17:34.543Z,24.92
2023-06-29T07:25:02.164Z,26.03
2023-06-29T07:27:28.755Z,26.68
2023-06-29T07:29:55.367Z,27.08
2023-06-29T07:32:21.908Z,27.49
2023-06-29T07:34:48.520Z,27.40
2023-06-29T07:37:15.370Z,27.58
2023-06-29T07:39:41.930Z,27.40
2023-06-29T07:42:08.464Z,27.25
2023-06-29T07:44:38.297Z,27.00
2023-06-29T07:47:05.317Z,26.88
2023-06-29T07:49:31.980Z,26.78
2023-06-29T07:51:59.416Z,26.64
2023-06-29T07:54:25.917Z,26.60
2023-06-29T07:59:22.117Z,26.29
2023-06-29T08:01:51.400Z,26.38
2023-06-29T08:07:10.130Z,25.94
2023-06-29T08:09:38.179Z,26.18
2023-06-29T08:12:05.324Z,26.34
2023-06-29T08:14:33.960Z,26.33
2023-06-29T08:17:00.933Z,26.28
2023-06-29T08:19:31.318Z,26.31
2023-06-29T08:21:59.725Z,26.07
2023-06-29T08:24:26.231Z,26.28
2023-06-29T08:26:52.739Z,26.61
2023-06-29T08:29:21.574Z,26.67
2023-06-29T08:31:48.458Z,26.48
2023-06-29T08:34:15.239Z,26.41
2023-06-29T08:36:41.868Z,26.39
2023-06-29T08:39:09.748Z,26.51
2023-06-29T08:41:36.705Z,26.41
2023-06-29T08:44:05.599Z,26.51
2023-06-29T08:46:33.939Z,26.52
2023-06-29T08:49:01.685Z,26.63
2023-06-29T08:51:30.031Z,26.59
2023-06-29T08:53:57.518Z,26.74
2023-06-29T08:56:24.853Z,26.81
2023-06-29T08:58:52.565Z,26.88
2023-06-29T09:01:19.924Z,26.82
2023-06-29T09:03:47.529Z,26.74
2023-06-29T09:06:15.758Z,26.79
2023-06-29T09:08:42.712Z,26.87
2023-06-29T09:11:09.482Z,27.02
2023-06-29T09:13:36.024Z,26.91
2023-06-29T09:16:04.744Z,27.11
2023-06-29T09:18:33.673Z,27.26
2023-06-29T09:21:04.452Z,27.33
2023-06-29T09:23:33.205Z,27.52
2023-06-29T09:25:59.823Z,27.53
2023-06-29T09:28:27.378Z,27.56
2023-06-29T09:30:54.369Z,27.57
2023-06-29T09:33:26.060Z,27.63
2023-06-29T09:35:53.228Z,27.70
2023-06-29T09:38:21.179Z,27.84
2023-06-29T09:40:55.260Z,27.97
2023-06-29T09:43:26.399Z,28.22
2023-06-29T09:45:58.507Z,28.42
2023-06-29T09:50:55.840Z,28.47
2023-06-29T09:53:30.625Z,28.71
2023-06-29T09:55:59.794Z,28.75
2023-06-29T09:58:29.193Z,28.66
2023-06-29T10:00:59.861Z,28.74
2023-06-29T10:03:28.665Z,28.82
2023-06-29T10:06:18.179Z,28.87
2023-06-29T10:08:51.009Z,29.01
2023-06-29T10:11:18.409Z,28.84
2023-06-29T10:13:50.220Z,29.03
2023-06-29T10:16:20.498Z,28.87
2023-06-29T10:18:48.573Z,28.38
2023-06-29T10:21:15.982Z,28.01
2023-06-29T10:23:45.639Z,27.94
2023-06-29T10:26:13.688Z,27.88
2023-06-29T10:28:40.764Z,28.06
2023-06-29T10:31:07.368Z,28.43
2023-06-29T10:33:46.787Z,28.56
2023-06-29T10:36:15.114Z,28.71
2023-06-29T10:38:41.916Z,28.82
2023-06-29T10:41:08.567Z,28.92
2023-06-29T10:43:55.379Z,28.98
2023-06-29T10:46:48.098Z,28.95
2023-06-29T10:49:22.272Z,29.12
2023-06-29T10:52:05.505Z,28.97
2023-06-29T10:54:32.353Z,28.96
2023-06-29T10:57:00.744Z,29.18
2023-06-29T10:59:28.715Z,29.28
2023-06-29T11:01:55.697Z,29.22
2023-06-29T11:04:25.665Z,29.23
2023-06-29T11:06:52.633Z,28.89
2023-06-29T11:09:20.752Z,28.94
2023-06-29T11:11:49.675Z,28.91
2023-06-29T11:14:19.056Z,29.14
2023-06-29T11:16:45.726Z,29.23
2023-06-29T11:19:13.675Z,29.41
2023-06-29T11:24:30.619Z,29.53
2023-06-29T11:26:59.363Z,29.44
2023-06-29T11:29:32.356Z,29.68
2023-06-29T11:32:01.979Z,29.55
2023-06-29T11:34:28.601Z,29.48
2023-06-29T11:37:15.384Z,29.54
2023-06-29T11:39:42.461Z,29.59
2023-06-29T11:42:10.215Z,29.51
2023-06-29T11:44:36.937Z,29.52
2023-06-29T11:47:18.502Z,29.29
2023-06-29T11:49:51.805Z,28.93
2023-06-29T11:52:22.875Z,29.16
2023-06-29T11:54:51.866Z,28.89
2023-06-29T11:57:19.095Z,29.01
2023-06-29T11:59:46.617Z,28.93
2023-06-29T12:02:15.093Z,28.97
2023-06-29T12:04:58.064Z,29.23
2023-06-29T12:07:41.271Z,29.43
2023-06-29T12:10:14.038Z,29.12
2023-06-29T12:12:44.507Z,28.96
2023-06-29T12:15:21.037Z,29.02
2023-06-29T12:20:24.053Z,28.86
2023-06-29T12:22:54.585Z,28.69
2023-06-29T12:25:26.633Z,28.84
2023-06-29T12:27:53.228Z,28.78
2023-06-29T12:30:22.625Z,28.69
2023-06-29T12:32:50.656Z,28.70
2023-06-29T12:35:18.712Z,28.57
2023-06-29T12:37:47.634Z,28.94
2023-06-29T12:40:16.415Z,28.98
2023-06-29T12:42:43.219Z,29.18
2023-06-29T12:45:10.097Z,29.26
2023-06-29T12:47:37.323Z,29.40
2023-06-29T12:50:04.884Z,29.35
2023-06-29T12:52:31.704Z,29.41
2023-06-29T12:54:58.446Z,29.19
2023-06-29T12:57:30.004Z,28.93
2023-06-29T12:59:58.026Z,29.19
2023-06-29T13:02:27.764Z,29.29
2023-06-29T13:04:54.522Z,29.38
2023-06-29T13:07:23.709Z,29.40
2023-06-29T13:09:52.956Z,29.47
2023-06-29T13:12:20.716Z,29.41
2023-06-29T13:14:48.629Z,29.44
2023-06-29T13:17:15.447Z,29.53
2023-06-29T13:19:43.823Z,29.50
2023-06-29T13:22:10.493Z,29.49
2023-06-29T13:24:37.470Z,29.54
2023-06-29T13:27:04.938Z,29.49
2023-06-29T13:29:32.596Z,29.45
2023-06-29T13:31:59.189Z,29.29
2023-06-29T13:34:28.143Z,29.43
2023-06-29T13:36:55.384Z,29.30
2023-06-29T13:39:22.253Z,29.20
2023-06-29T13:41:50.751Z,28.97
2023-06-29T13:44:17.801Z,28.87
2023-06-29T13:46:47.882Z,28.84
2023-06-29T13:49:18.475Z,28.99
2023-06-29T13:51:49.260Z,28.92
2023-06-29T13:54:16.786Z,28.79
2023-06-29T13:56:45.045Z,28.90
2023-06-29T13:59:11.749Z,28.62
2023-06-29T14:01:40.763Z,28.64
2023-06-29T14:04:10.198Z,28.61
2023-06-29T14:06:42.355Z,28.57
2023-06-29T14:09:12.437Z,28.50
2023-06-29T14:11:39.349Z,28.50
2023-06-29T14:14:06.304Z,28.64
2023-06-29T14:16:33.295Z,28.58
2023-06-29T14:19:02.661Z,28.51
2023-06-29T14:21:29.579Z,28.65
2023-06-29T14:23:56.686Z,28.70
2023-06-29T14:26:23.866Z,28.52
2023-06-29T14:28:52.402Z,28.35
2023-06-29T14:31:19.258Z,28.03
2023-06-29T14:33:46.460Z,28.18
2023-06-29T14:36:13.503Z,28.20
2023-06-29T14:38:40.046Z,28.08
2023-06-29T14:41:06.634Z,28.07
2023-06-29T14:43:36.625Z,28.28
2023-06-29T14:46:03.243Z,28.47
2023-06-29T14:48:29.819Z,28.60
2023-06-29T14:50:56.605Z,28.71
2023-06-29T14:53:24.102Z,28.74
2023-06-29T14:55:51.204Z,28.67
2023-06-29T14:58:20.047Z,28.62
2023-06-29T15:00:46.612Z,28.77
2023-06-29T15:03:13.559Z,28.96
2023-06-29T15:05:40.379Z,29.16
2023-06-29T15:08:06.921Z,29.24
2023-06-29T15:10:33.674Z,29.11
2023-06-29T15:13:00.213Z,28.93
2023-06-29T15:15:26.831Z,29.08
2023-06-29T15:17:53.575Z,29.07
2023-06-29T15:20:22.374Z,29.08
2023-06-29T15:22:49.007Z,29.25
2023-06-29T15:25:15.688Z,29.27
2023-06-29T15:27:42.288Z,29.40
2023-06-29T15:30:09.404Z,29.24
2023-06-29T15:32:36.476Z,29.26
2023-06-29T15:35:04.365Z,29.32
2023-06-29T15:37:34.013Z,29.21
2023-06-29T15:40:00.955Z,29.26
2023-06-29T15:42:29.415Z,29.16
2023-06-29T15:44:59.994Z,29.12
2023-06-29T15:47:28.398Z,29.02
2023-06-29T15:49:55.156Z,28.84
2023-06-29T15:52:24.036Z,29.08
2023-06-29T15:54:50.572Z,29.20
2023-06-29T15:57:17.194Z,29.08
2023-06-29T15:59:47.518Z,29.11
2023-06-29T16:02:14.137Z,29.28
2023-06-29T16:04:40.710Z,29.25
2023-06-29T16:07:08.750Z,29.36
2023-06-29T16:09:38.435Z,29.38
2023-06-29T16:12:06.153Z,29.30
2023-06-29T16:14:33.319Z,29.02
2023-06-29T16:17:00.506Z,28.94
2023-06-29T16:19:27.555Z,28.87
2023-06-29T16:21:54.156Z,28.85
2023-06-29T16:24:20.691Z,28.80
2023-06-29T16:26:47.917Z,28.72
2023-06-29T16:29:14.536Z,28.68
2023-06-29T16:31:42.669Z,28.67
2023-06-29T16:34:11.521Z,28.70
2023-06-29T16:36:42.381Z,28.59
2023-06-29T16:39:09.011Z,28.57
2023-06-29T16:41:35.592Z,28.64
2023-06-29T16:44:02.189Z,28.66
2023-06-29T16:46:28.801Z,28.73
2023-06-29T16:49:00.116Z,28.69
2023-06-29T16:51:29.301Z,28.67
2023-06-29T16:53:56.580Z,28.66
2023-06-29T16:56:23.169Z,28.62
2023-06-29T16:58:50.252Z,28.69
2023-06-29T17:01:17.086Z,28.69
2023-06-29T17:03:45.340Z,28.73
2023-06-29T17:06:12.104Z,28.64
2023-06-29T17:08:41.136Z,28.53
2023-06-29T17:11:08.408Z,28.42
2023-06-29T17:13:35.400Z,28.22
2023-06-29T17:16:04.359Z,28.15
2023-06-29T17:18:30.930Z,28.23
2023-06-29T17:20:57.453Z,28.28
2023-06-29T17:23:24.009Z,28.17
2023-06-29T17:25:51.643Z,28.19
2023-06-29T17:28:21.313Z,28.20
2023-06-29T17:30:48.193Z,28.12
2023-06-29T17:33:15.568Z,28.18
2023-06-29T17:35:46.730Z,28.22
2023-06-29T17:38:13.507Z,28.21
2023-06-29T17:40:43.719Z,28.08
2023-06-29T17:43:10.284Z,28.08
2023-06-29T17:45:36.800Z,28.09
2023-06-29T17:48:03.660Z,28.09
2023-06-29T17:50:30.491Z,28.07
2023-06-29T17:52:57.044Z,28.01
2023-06-29T17:55:23.560Z,27.97
2023-06-29T17:57:50.127Z,27.95
2023-06-29T18:00:17.273Z,27.90
2023-06-29T18:02:44.120Z,27.83
2023-06-29T18:05:11.257Z,27.79
2023-06-29T18:07:38.120Z,27.71
2023-06-29T18:10:06.162Z,27.63
2023-06-29T18:12:36.886Z,27.47
2023-06-29T18:15:05.797Z,27.36
2023-06-29T18:17:35.647Z,27.24
2023-06-29T18:20:02.431Z,27.08
2023-06-29T18:22:31.372Z,26.95
2023-06-29T18:24:59.459Z,26.86
2023-06-29T18:27:27.825Z,26.76
2023-06-29T18:29:55.033Z,26.69
2023-06-29T18:32:21.566Z,26.61
2023-06-29T18:34:52.683Z,26.53
2023-06-29T18:37:19.234Z,26.47
2023-06-29T18:39:45.728Z,26.38
2023-06-29T18:42:12.323Z,26.30
2023-06-29T18:44:43.959Z,26.25
2023-06-29T18:47:14.916Z,26.04
2023-06-29T18:49:51.530Z,25.89
2023-06-29T18:52:20.183Z,25.80
2023-06-29T18:54:47.037Z,25.67
2023-06-29T18:57:16.024Z,25.61
2023-06-29T18:59:43.907Z,25.54
2023-06-29T19:02:10.872Z,25.47
2023-06-29T19:04:37.451Z,25.43
2023-06-29T19:07:04.526Z,25.38
2023-06-29T19:09:34.912Z,25.34
2023-06-29T19:12:02.272Z,25.31
2023-06-29T19:14:28.841Z,25.24
2023-06-29T19:16:58.529Z,25.18
2023-06-29T19:19:25.906Z,25.13
2023-06-29T19:21:53.547Z,25.07
2023-06-29T19:24:22.120Z,24.96
2023-06-29T19:26:48.876Z,24.77
2023-06-29T19:29:15.449Z,24.69
2023-06-29T19:31:44.708Z,24.70
2023-06-29T19:34:12.205Z,24.66
2023-06-29T19:36:39.262Z,24.68
2023-06-29T19:39:07.556Z,24.60
2023-06-29T19:41:34.466Z,24.61
2023-06-29T19:44:01.164Z,24.61
2023-06-29T19:46:27.853Z,24.58
2023-06-29T19:48:54.567Z,24.51
2023-06-29T19:51:21.335Z,24.52
2023-06-29T19:53:47.921Z,24.50
2023-06-29T19:56:14.574Z,24.50
2023-06-29T19:58:41.183Z,24.51
2023-06-29T20:01:07.680Z,24.48
2023-06-29T20:03:34.305Z,24.48
2023-06-29T20:06:01.046Z,24.45
2023-06-29T20:08:27.598Z,24.42
2023-06-29T20:10:57.647Z,24.41
2023-06-29T20:13:24.313Z,24.39
2023-06-29T20:15:51.064Z,24.37
2023-06-29T20:18:17.895Z,24.33
2023-06-29T20:20:44.449Z,24.28
2023-06-29T20:23:12.836Z,24.19
2023-06-29T20:25:39.691Z,24.11
2023-06-29T20:28:06.260Z,24.01
2023-06-29T20:30:32.869Z,23.93
2023-06-29T20:32:59.474Z,23.85
2023-06-29T20:35:28.156Z,23.75
2023-06-29T20:37:55.804Z,23.68
2023-06-29T20:40:22.713Z,23.64
2023-06-29T20:42:49.202Z,23.60
2023-06-29T20:45:20.255Z,23.59
2023-06-29T20:47:46.822Z,23.59
2023-06-29T20:50:13.475Z,23.55
2023-06-29T20:52:40.288Z,23.52
2023-06-29T20:55:09.129Z,23.49
2023-06-29T20:57:38.856Z,23.47
2023-06-29T21:00:06.907Z,23.43
2023-06-29T21:02:34.008Z,23.35
2023-06-29T21:05:00.835Z,23.31
2023-06-29T21:07:27.821Z,23.27
2023-06-29T21:09:54.505Z,23.22
2023-06-29T21:12:21.328Z,23.15
2023-06-29T21:14:48.109Z,23.09
2023-06-29T21:17:15.350Z,23.08
2023-06-29T21:19:42.688Z,23.05
2023-06-29T21:22:12.020Z,22.97
2023-06-29T21:24:40.529Z,22.91
2023-06-29T21:27:12.003Z,22.84
2023-06-29T21:29:42.369Z,22.80
2023-06-29T21:32:11.274Z,22.69
2023-06-29T21:34:38.695Z,22.61
2023-06-29T21:37:06.000Z,22.55
2023-06-29T21:39:34.231Z,22.49
2023-06-29T21:42:01.210Z,22.40
2023-06-29T21:44:27.787Z,22.29
2023-06-29T21:46:54.647Z,22.20
2023-06-29T21:49:22.984Z,22.14
2023-06-29T21:51:49.682Z,22.09
2023-06-29T21:54:16.258Z,22.04
2023-06-29T21:56:42.915Z,22.01
2023-06-29T21:59:09.768Z,21.96
2023-06-29T22:01:36.442Z,21.93
2023-06-29T22:04:03.312Z,21.85
2023-06-29T22:06:30.538Z,21.77
2023-06-29T22:08:57.635Z,21.72
2023-06-29T22:11:28.135Z,21.70
2023-06-29T22:13:55.270Z,21.61
2023-06-29T22:16:24.056Z,21.54
2023-06-29T22:18:51.962Z,21.50
2023-06-29T22:21:22.525Z,21.44
2023-06-29T22:23:54.356Z,21.36
2023-06-29T22:26:21.655Z,21.30
2023-06-29T22:28:48.605Z,21.27
2023-06-29T22:31:18.044Z,21.24
2023-06-29T22:33:47.076Z,21.19
2023-06-29T22:36:17.323Z,21.15
2023-06-29T22:38:44.080Z,21.10
2023-06-29T22:41:13.338Z,21.09
2023-06-29T22:43:40.653Z,21.08
2023-06-29T22:46:07.485Z,21.03
2023-06-29T22:48:34.109Z,21.01
2023-06-29T22:51:01.038Z,20.98
2023-06-29T22:53:27.787Z,20.96
2023-06-29T22:55:54.286Z,20.95
2023-06-29T22:58:25.311Z,20.94
2023-06-29T23:00:55.891Z,20.91
2023-06-29T23:03:23.318Z,20.89
2023-06-29T23:05:50.562Z,20.89
2023-06-29T23:08:19.350Z,20.90
2023-06-29T23:10:50.299Z,20.90
2023-06-29T23:13:17.322Z,20.90
2023-06-29T23:15:46.990Z,20.89
2023-06-29T23:18:14.623Z,20.90
2023-06-29T23:20:45.743Z,20.89
2023-06-29T23:23:16.358Z,20.90
2023-06-29T23:25:43.685Z,20.88
2023-06-29T23:28:10.504Z,20.84
2023-06-29T23:30:37.098Z,20.84
2023-06-29T23:33:03.858Z,20.85
2023-06-29T23:35:30.618Z,20.86
2023-06-29T23:37:57.232Z,20.84
2023-06-29T23:40:24.018Z,20.82
2023-06-29T23:42:51.034Z,20.77
2023-06-29T23:45:17.944Z,20.76
2023-06-29T23:47:44.556Z,20.72
2023-06-29T23:50:14.448Z,20.71
2023-06-29T23:52:42.287Z,20.69
2023-06-29T23:55:10.374Z,20.67
2023-06-29T23:57:37.086Z,20.65
